sensor_id;sensor_type;location;lat;lon;timestamp;pressure;altitude;pressure_sealevel;temperature;humidity
36502;BME280;25393;46.108;3.390;2022-07-06T00:01:33;98633.53;;;17.41;72.74
36502;BME280;25393;46.108;3.390;2022-07-06T00:04:01;98662.41;;;17.46;72.91
36502;BME280;25393;46.108;3.390;2022-07-06T00:06:28;98642.13;;;17.30;73.23
36502;BME280;25393;46.108;3.390;2022-07-06T00:08:55;98662.38;;;17.39;73.50
36502;BME280;25393;46.108;3.390;2022-07-06T00:11:22;98673.09;;;17.39;73.38
36502;BME280;25393;46.108;3.390;2022-07-06T00:13:49;98650.94;;;17.24;73.80
36502;BME280;25393;46.108;3.390;2022-07-06T00:16:16;98653.38;;;17.19;74.02
36502;BME280;25393;46.108;3.390;2022-07-06T00:18:43;98668.66;;;17.25;74.05
36502;BME280;25393;46.108;3.390;2022-07-06T00:21:10;98681.88;;;17.27;74.13
36502;BME280;25393;46.108;3.390;2022-07-06T00:23:36;98668.75;;;17.11;74.47
36502;BME280;25393;46.108;3.390;2022-07-06T00:26:03;98662.78;;;17.09;74.45
36502;BME280;25393;46.108;3.390;2022-07-06T00:28:30;98665.50;;;17.15;74.57
36502;BME280;25393;46.108;3.390;2022-07-06T00:30:56;98678.31;;;17.20;75.24
36502;BME280;25393;46.108;3.390;2022-07-06T00:33:23;98668.63;;;17.19;74.99
36502;BME280;25393;46.108;3.390;2022-07-06T00:35:50;98667.16;;;17.16;75.25
36502;BME280;25393;46.108;3.390;2022-07-06T00:38:16;98681.22;;;17.25;75.54
36502;BME280;25393;46.108;3.390;2022-07-06T00:40:44;98680.59;;;17.23;75.93
36502;BME280;25393;46.108;3.390;2022-07-06T00:43:10;98650.81;;;17.05;76.54
36502;BME280;25393;46.108;3.390;2022-07-06T00:45:37;98671.03;;;17.14;76.59
36502;BME280;25393;46.108;3.390;2022-07-06T00:48:04;98667.50;;;17.07;76.90
36502;BME280;25393;46.108;3.390;2022-07-06T00:50:30;98678.91;;;17.15;77.42
36502;BME280;25393;46.108;3.390;2022-07-06T00:53:03;98659.97;;;17.17;77.31
36502;BME280;25393;46.108;3.390;2022-07-06T00:55:32;98646.28;;;17.05;76.98
36502;BME280;25393;46.108;3.390;2022-07-06T00:58:04;98667.31;;;17.08;77.39
36502;BME280;25393;46.108;3.390;2022-07-06T01:00:32;98658.22;;;17.03;76.30
36502;BME280;25393;46.108;3.390;2022-07-06T01:02:59;98668.50;;;16.99;76.80
36502;BME280;25393;46.108;3.390;2022-07-06T01:05:26;98665.16;;;16.97;76.43
36502;BME280;25393;46.108;3.390;2022-07-06T01:07:53;98673.69;;;17.07;76.48
36502;BME280;25393;46.108;3.390;2022-07-06T01:10:20;98675.09;;;17.03;76.71
36502;BME280;25393;46.108;3.390;2022-07-06T01:12:48;98648.75;;;16.79;76.80
36502;BME280;25393;46.108;3.390;2022-07-06T01:15:18;98670.28;;;16.92;77.49
36502;BME280;25393;46.108;3.390;2022-07-06T01:17:45;98666.78;;;16.91;77.69
36502;BME280;25393;46.108;3.390;2022-07-06T01:20:15;98667.66;;;16.98;77.59
36502;BME280;25393;46.108;3.390;2022-07-06T01:22:43;98667.41;;;16.93;77.46
36502;BME280;25393;46.108;3.390;2022-07-06T01:25:10;98667.97;;;16.89;77.89
36502;BME280;25393;46.108;3.390;2022-07-06T01:27:38;98664.81;;;16.79;77.89
36502;BME280;25393;46.108;3.390;2022-07-06T01:30:10;98652.47;;;16.78;77.76
36502;BME280;25393;46.108;3.390;2022-07-06T01:32:38;98650.78;;;16.77;77.96
36502;BME280;25393;46.108;3.390;2022-07-06T01:35:06;98643.28;;;16.66;78.43
36502;BME280;25393;46.108;3.390;2022-07-06T01:37:33;98631.06;;;16.57;78.37
36502;BME280;25393;46.108;3.390;2022-07-06T01:40:01;98625.19;;;16.46;78.59
36502;BME280;25393;46.108;3.390;2022-07-06T01:42:28;98623.75;;;16.50;78.23
36502;BME280;25393;46.108;3.390;2022-07-06T01:44:55;98636.78;;;16.54;78.51
36502;BME280;25393;46.108;3.390;2022-07-06T01:47:24;98629.50;;;16.47;78.47
36502;BME280;25393;46.108;3.390;2022-07-06T01:49:50;98620.34;;;16.35;77.95
36502;BME280;25393;46.108;3.390;2022-07-06T01:52:17;98637.97;;;16.51;78.15
36502;BME280;25393;46.108;3.390;2022-07-06T01:54:44;98645.56;;;16.47;78.07
36502;BME280;25393;46.108;3.390;2022-07-06T01:57:11;98636.00;;;16.38;78.14
36502;BME280;25393;46.108;3.390;2022-07-06T01:59:37;98626.25;;;16.31;78.50
36502;BME280;25393;46.108;3.390;2022-07-06T02:02:04;98628.94;;;16.31;78.48
36502;BME280;25393;46.108;3.390;2022-07-06T02:04:31;98646.50;;;16.40;78.52
36502;BME280;25393;46.108;3.390;2022-07-06T02:06:57;98623.13;;;16.27;78.33
36502;BME280;25393;46.108;3.390;2022-07-06T02:09:24;98646.94;;;16.43;78.11
36502;BME280;25393;46.108;3.390;2022-07-06T02:11:51;98626.72;;;16.34;77.85
36502;BME280;25393;46.108;3.390;2022-07-06T02:14:17;98642.44;;;16.44;77.25
36502;BME280;25393;46.108;3.390;2022-07-06T02:16:44;98621.28;;;16.28;77.43
36502;BME280;25393;46.108;3.390;2022-07-06T02:19:11;98635.50;;;16.28;78.40
36502;BME280;25393;46.108;3.390;2022-07-06T02:21:37;98630.28;;;16.20;78.69
36502;BME280;25393;46.108;3.390;2022-07-06T02:24:04;98625.03;;;16.12;78.28
36502;BME280;25393;46.108;3.390;2022-07-06T02:26:31;98614.84;;;16.01;78.89
36502;BME280;25393;46.108;3.390;2022-07-06T02:28:57;98644.13;;;16.09;79.45
36502;BME280;25393;46.108;3.390;2022-07-06T02:31:24;98632.56;;;15.87;80.56
36502;BME280;25393;46.108;3.390;2022-07-06T02:33:50;98631.50;;;15.82;81.63
36502;BME280;25393;46.108;3.390;2022-07-06T02:36:17;98630.66;;;15.81;82.29
36502;BME280;25393;46.108;3.390;2022-07-06T02:38:44;98631.66;;;15.80;80.92
36502;BME280;25393;46.108;3.390;2022-07-06T02:41:10;98636.19;;;15.80;80.32
36502;BME280;25393;46.108;3.390;2022-07-06T02:43:38;98617.06;;;15.62;80.68
36502;BME280;25393;46.108;3.390;2022-07-06T02:46:05;98660.69;;;15.83;80.47
36502;BME280;25393;46.108;3.390;2022-07-06T02:48:32;98627.56;;;15.63;80.96
36502;BME280;25393;46.108;3.390;2022-07-06T02:50:59;98649.94;;;15.62;81.71
36502;BME280;25393;46.108;3.390;2022-07-06T02:53:26;98661.06;;;15.66;82.37
36502;BME280;25393;46.108;3.390;2022-07-06T02:55:53;98633.56;;;15.51;82.15
36502;BME280;25393;46.108;3.390;2022-07-06T02:58:19;98656.09;;;15.63;82.30
36502;BME280;25393;46.108;3.390;2022-07-06T03:00:47;98635.22;;;15.52;82.41
36502;BME280;25393;46.108;3.390;2022-07-06T03:03:13;98655.28;;;15.62;82.11
36502;BME280;25393;46.108;3.390;2022-07-06T03:05:40;98633.25;;;15.45;81.38
36502;BME280;25393;46.108;3.390;2022-07-06T03:08:07;98649.41;;;15.52;81.42
36502;BME280;25393;46.108;3.390;2022-07-06T03:10:33;98660.53;;;15.56;81.11
36502;BME280;25393;46.108;3.390;2022-07-06T03:13:00;98628.28;;;15.28;81.32
36502;BME280;25393;46.108;3.390;2022-07-06T03:15:26;98658.03;;;15.39;81.97
36502;BME280;25393;46.108;3.390;2022-07-06T03:17:53;98636.97;;;15.30;82.34
36502;BME280;25393;46.108;3.390;2022-07-06T03:20:20;98638.13;;;15.27;82.73
36502;BME280;25393;46.108;3.390;2022-07-06T03:22:46;98649.09;;;15.32;81.70
36502;BME280;25393;46.108;3.390;2022-07-06T03:25:13;98664.59;;;15.37;82.35
36502;BME280;25393;46.108;3.390;2022-07-06T03:27:40;98658.31;;;15.30;82.93
36502;BME280;25393;46.108;3.390;2022-07-06T03:30:06;98664.28;;;15.32;82.92
36502;BME280;25393;46.108;3.390;2022-07-06T03:32:39;98634.06;;;15.17;82.19
36502;BME280;25393;46.108;3.390;2022-07-06T03:35:06;98639.34;;;15.25;81.50
36502;BME280;25393;46.108;3.390;2022-07-06T03:37:33;98667.44;;;15.35;82.49
36502;BME280;25393;46.108;3.390;2022-07-06T03:39:59;98645.22;;;15.20;83.68
36502;BME280;25393;46.108;3.390;2022-07-06T03:42:26;98639.78;;;15.14;84.29
36502;BME280;25393;46.108;3.390;2022-07-06T03:44:53;98640.34;;;15.09;84.43
36502;BME280;25393;46.108;3.390;2022-07-06T03:47:19;98649.91;;;15.04;84.56
36502;BME280;25393;46.108;3.390;2022-07-06T03:49:46;98633.31;;;14.79;85.33
36502;BME280;25393;46.108;3.390;2022-07-06T03:52:12;98655.78;;;14.84;85.71
36502;BME280;25393;46.108;3.390;2022-07-06T03:54:39;98684.69;;;14.95;84.94
36502;BME280;25393;46.108;3.390;2022-07-06T03:57:06;98681.19;;;14.95;85.57
36502;BME280;25393;46.108;3.390;2022-07-06T03:59:32;98648.94;;;14.82;85.90
36502;BME280;25393;46.108;3.390;2022-07-06T04:01:59;98690.63;;;15.06;85.92
36502;BME280;25393;46.108;3.390;2022-07-06T04:04:26;98666.25;;;14.86;85.07
36502;BME280;25393;46.108;3.390;2022-07-06T04:06:53;98686.06;;;14.91;84.26
36502;BME280;25393;46.108;3.390;2022-07-06T04:09:19;98687.91;;;14.91;83.40
36502;BME280;25393;46.108;3.390;2022-07-06T04:11:46;98669.00;;;14.78;84.16
36502;BME280;25393;46.108;3.390;2022-07-06T04:14:13;98684.41;;;14.90;84.82
36502;BME280;25393;46.108;3.390;2022-07-06T04:16:39;98689.53;;;14.92;85.07
36502;BME280;25393;46.108;3.390;2022-07-06T04:19:06;98683.09;;;14.86;85.20
36502;BME280;25393;46.108;3.390;2022-07-06T04:21:33;98685.41;;;14.89;84.51
36502;BME280;25393;46.108;3.390;2022-07-06T04:23:59;98670.84;;;14.77;84.90
36502;BME280;25393;46.108;3.390;2022-07-06T04:26:26;98676.28;;;14.84;85.54
36502;BME280;25393;46.108;3.390;2022-07-06T04:28:53;98688.19;;;14.96;85.10
36502;BME280;25393;46.108;3.390;2022-07-06T04:31:19;98680.47;;;15.01;83.97
36502;BME280;25393;46.108;3.390;2022-07-06T04:33:46;98695.50;;;15.02;83.73
36502;BME280;25393;46.108;3.390;2022-07-06T04:36:13;98690.00;;;14.95;84.40
36502;BME280;25393;46.108;3.390;2022-07-06T04:38:39;98703.50;;;15.02;85.57
36502;BME280;25393;46.108;3.390;2022-07-06T04:41:06;98688.00;;;14.97;85.78
36502;BME280;25393;46.108;3.390;2022-07-06T04:43:32;98692.81;;;15.02;86.17
36502;BME280;25393;46.108;3.390;2022-07-06T04:46:01;98661.03;;;14.92;86.34
36502;BME280;25393;46.108;3.390;2022-07-06T04:48:28;98686.38;;;15.11;86.32
36502;BME280;25393;46.108;3.390;2022-07-06T04:50:55;98681.41;;;15.08;87.73
36502;BME280;25393;46.108;3.390;2022-07-06T04:53:21;98696.09;;;15.56;100.00
36502;BME280;25393;46.108;3.390;2022-07-06T04:55:48;98703.75;;;15.59;96.18
36502;BME280;25393;46.108;3.390;2022-07-06T04:58:15;98674.97;;;15.46;90.47
36502;BME280;25393;46.108;3.390;2022-07-06T05:00:42;98701.72;;;15.61;88.06
36502;BME280;25393;46.108;3.390;2022-07-06T05:03:08;98693.81;;;15.53;87.49
36502;BME280;25393;46.108;3.390;2022-07-06T05:05:35;98690.50;;;15.51;87.26
36502;BME280;25393;46.108;3.390;2022-07-06T05:08:02;98707.78;;;15.70;86.99
36502;BME280;25393;46.108;3.390;2022-07-06T05:10:29;98708.09;;;15.75;86.79
36502;BME280;25393;46.108;3.390;2022-07-06T05:12:57;98713.81;;;15.72;86.52
36502;BME280;25393;46.108;3.390;2022-07-06T05:15:24;98714.44;;;15.74;86.03
36502;BME280;25393;46.108;3.390;2022-07-06T05:17:52;98715.81;;;15.84;85.19
36502;BME280;25393;46.108;3.390;2022-07-06T05:20:19;98712.84;;;15.94;84.51
36502;BME280;25393;46.108;3.390;2022-07-06T05:22:46;98705.28;;;15.97;83.65
36502;BME280;25393;46.108;3.390;2022-07-06T05:25:14;98685.56;;;15.98;83.04
36502;BME280;25393;46.108;3.390;2022-07-06T05:27:40;98715.41;;;16.17;82.56
36502;BME280;25393;46.108;3.390;2022-07-06T05:30:08;98704.53;;;16.18;82.27
36502;BME280;25393;46.108;3.390;2022-07-06T05:32:34;98700.88;;;16.26;82.20
36502;BME280;25393;46.108;3.390;2022-07-06T05:35:02;98706.47;;;16.45;82.03
36502;BME280;25393;46.108;3.390;2022-07-06T05:37:49;98683.59;;;16.43;81.71
36502;BME280;25393;46.108;3.390;2022-07-06T05:40:15;98717.84;;;16.69;81.09
36502;BME280;25393;46.108;3.390;2022-07-06T05:42:43;98712.59;;;16.82;80.00
36502;BME280;25393;46.108;3.390;2022-07-06T05:45:09;98700.53;;;16.92;78.89
36502;BME280;25393;46.108;3.390;2022-07-06T05:47:36;98695.13;;;16.86;78.93
36502;BME280;25393;46.108;3.390;2022-07-06T05:50:22;98683.81;;;16.84;78.49
36502;BME280;25393;46.108;3.390;2022-07-06T05:53:03;98721.56;;;17.17;77.71
36502;BME280;25393;46.108;3.390;2022-07-06T05:55:42;98688.47;;;17.03;77.43
36502;BME280;25393;46.108;3.390;2022-07-06T05:58:09;98694.19;;;17.21;76.05
36502;BME280;25393;46.108;3.390;2022-07-06T06:00:36;98711.72;;;17.24;76.45
36502;BME280;25393;46.108;3.390;2022-07-06T06:03:03;98726.97;;;17.23;76.91
36502;BME280;25393;46.108;3.390;2022-07-06T06:05:29;98709.41;;;17.21;76.98
36502;BME280;25393;46.108;3.390;2022-07-06T06:07:56;98728.06;;;17.35;77.13
36502;BME280;25393;46.108;3.390;2022-07-06T06:10:23;98731.44;;;17.44;77.46
36502;BME280;25393;46.108;3.390;2022-07-06T06:12:50;98741.44;;;17.57;77.02
36502;BME280;25393;46.108;3.390;2022-07-06T06:15:17;98734.09;;;17.65;76.89
36502;BME280;25393;46.108;3.390;2022-07-06T06:17:44;98730.03;;;17.76;75.31
36502;BME280;25393;46.108;3.390;2022-07-06T06:20:13;98737.72;;;17.85;75.14
36502;BME280;25393;46.108;3.390;2022-07-06T06:22:52;98736.72;;;17.93;75.23
36502;BME280;25393;46.108;3.390;2022-07-06T06:25:33;98737.19;;;18.03;73.24
36502;BME280;25393;46.108;3.390;2022-07-06T06:28:02;98723.75;;;17.96;73.84
36502;BME280;25393;46.108;3.390;2022-07-06T06:30:29;98738.91;;;18.17;73.49
36502;BME280;25393;46.108;3.390;2022-07-06T06:33:12;98733.97;;;18.27;72.36
36502;BME280;25393;46.108;3.390;2022-07-06T06:35:50;98739.59;;;18.39;72.48
36502;BME280;25393;46.108;3.390;2022-07-06T06:38:18;98745.25;;;18.57;72.42
36502;BME280;25393;46.108;3.390;2022-07-06T06:40:46;98738.91;;;18.71;71.65
36502;BME280;25393;46.108;3.390;2022-07-06T06:43:13;98750.06;;;18.88;70.81
36502;BME280;25393;46.108;3.390;2022-07-06T06:45:40;98748.03;;;19.03;69.99
36502;BME280;25393;46.108;3.390;2022-07-06T06:48:07;98742.84;;;19.15;67.62
36502;BME280;25393;46.108;3.390;2022-07-06T06:50:42;98741.41;;;19.19;68.09
36502;BME280;25393;46.108;3.390;2022-07-06T06:53:09;98744.09;;;19.25;68.18
36502;BME280;25393;46.108;3.390;2022-07-06T06:55:36;98726.72;;;19.34;67.73
36502;BME280;25393;46.108;3.390;2022-07-06T06:58:03;98731.09;;;19.49;67.17
36502;BME280;25393;46.108;3.390;2022-07-06T07:00:30;98739.94;;;19.75;74.71
36502;BME280;25393;46.108;3.390;2022-07-06T07:02:57;98733.28;;;19.91;71.14
36502;BME280;25393;46.108;3.390;2022-07-06T07:05:24;98733.22;;;20.04;68.82
36502;BME280;25393;46.108;3.390;2022-07-06T07:07:50;98747.66;;;20.29;67.09
36502;BME280;25393;46.108;3.390;2022-07-06T07:10:17;98735.59;;;20.38;66.58
36502;BME280;25393;46.108;3.390;2022-07-06T07:12:48;98746.47;;;20.57;65.89
36502;BME280;25393;46.108;3.390;2022-07-06T07:15:16;98733.22;;;20.62;63.93
36502;BME280;25393;46.108;3.390;2022-07-06T07:17:42;98744.06;;;20.80;64.14
36502;BME280;25393;46.108;3.390;2022-07-06T07:20:10;98740.16;;;21.01;63.03
36502;BME280;25393;46.108;3.390;2022-07-06T07:22:36;98722.69;;;21.16;62.83
36502;BME280;25393;46.108;3.390;2022-07-06T07:25:04;98718.31;;;21.40;62.22
36502;BME280;25393;46.108;3.390;2022-07-06T07:27:31;98720.16;;;21.64;61.49
36502;BME280;25393;46.108;3.390;2022-07-06T07:29:58;98690.56;;;21.76;61.17
36502;BME280;25393;46.108;3.390;2022-07-06T07:32:25;98730.75;;;22.20;60.20
36502;BME280;25393;46.108;3.390;2022-07-06T07:34:52;98720.56;;;22.40;60.14
36502;BME280;25393;46.108;3.390;2022-07-06T07:37:18;98726.81;;;22.71;57.74
36502;BME280;25393;46.108;3.390;2022-07-06T07:39:45;98722.94;;;22.78;55.28
36502;BME280;25393;46.108;3.390;2022-07-06T07:42:12;98729.13;;;22.97;55.79
36502;BME280;25393;46.108;3.390;2022-07-06T07:44:43;98733.00;;;23.13;55.54
36502;BME280;25393;46.108;3.390;2022-07-06T07:47:13;98729.72;;;23.22;54.62
36502;BME280;25393;46.108;3.390;2022-07-06T07:49:40;98729.44;;;23.42;53.59
36502;BME280;25393;46.108;3.390;2022-07-06T07:52:07;98722.63;;;23.51;54.40
36502;BME280;25393;46.108;3.390;2022-07-06T07:54:34;98743.06;;;23.82;52.57
36502;BME280;25393;46.108;3.390;2022-07-06T07:57:02;98730.50;;;23.87;52.45
36502;BME280;25393;46.108;3.390;2022-07-06T07:59:29;98741.03;;;24.12;52.22
36502;BME280;25393;46.108;3.390;2022-07-06T08:01:59;98745.03;;;24.21;52.17
36502;BME280;25393;46.108;3.390;2022-07-06T08:04:26;98738.44;;;24.29;51.66
36502;BME280;25393;46.108;3.390;2022-07-06T08:06:53;98735.72;;;24.29;51.03
36502;BME280;25393;46.108;3.390;2022-07-06T08:09:27;98742.16;;;24.40;50.88
36502;BME280;25393;46.108;3.390;2022-07-06T08:11:53;98740.41;;;24.45;51.25
36502;BME280;25393;46.108;3.390;2022-07-06T08:14:20;98737.41;;;24.58;51.61
36502;BME280;25393;46.108;3.390;2022-07-06T08:16:47;98726.41;;;24.65;50.07
36502;BME280;25393;46.108;3.390;2022-07-06T08:19:14;98728.81;;;24.78;50.95
36502;BME280;25393;46.108;3.390;2022-07-06T08:21:41;98739.59;;;25.01;49.34
36502;BME280;25393;46.108;3.390;2022-07-06T08:24:09;98728.25;;;25.04;49.03
36502;BME280;25393;46.108;3.390;2022-07-06T08:26:36;98740.66;;;25.33;48.74
36502;BME280;25393;46.108;3.390;2022-07-06T08:29:03;98719.31;;;25.54;48.95
36502;BME280;25393;46.108;3.390;2022-07-06T08:31:30;98726.19;;;25.78;48.09
36502;BME280;25393;46.108;3.390;2022-07-06T08:34:17;98702.63;;;25.83;47.98
36502;BME280;25393;46.108;3.390;2022-07-06T08:36:45;98714.25;;;25.79;46.17
36502;BME280;25393;46.108;3.390;2022-07-06T08:39:12;98731.78;;;25.93;46.43
36502;BME280;25393;46.108;3.390;2022-07-06T08:41:41;98727.31;;;26.04;46.23
36502;BME280;25393;46.108;3.390;2022-07-06T08:44:09;98723.81;;;26.25;47.60
36502;BME280;25393;46.108;3.390;2022-07-06T08:46:38;98727.44;;;26.52;46.82
36502;BME280;25393;46.108;3.390;2022-07-06T08:49:07;98738.50;;;26.72;45.40
36502;BME280;25393;46.108;3.390;2022-07-06T08:51:37;98725.19;;;26.98;45.04
36502;BME280;25393;46.108;3.390;2022-07-06T08:54:05;98724.56;;;27.17;45.04
36502;BME280;25393;46.108;3.390;2022-07-06T08:56:34;98729.38;;;27.42;45.94
36502;BME280;25393;46.108;3.390;2022-07-06T08:59:01;98725.69;;;27.53;44.54
36502;BME280;25393;46.108;3.390;2022-07-06T09:01:28;98717.56;;;27.58;42.82
36502;BME280;25393;46.108;3.390;2022-07-06T09:03:55;98732.91;;;27.74;42.94
36502;BME280;25393;46.108;3.390;2022-07-06T09:06:26;98739.53;;;27.89;44.33
36502;BME280;25393;46.108;3.390;2022-07-06T09:08:55;98748.00;;;27.97;42.02
36502;BME280;25393;46.108;3.390;2022-07-06T09:11:23;98741.75;;;27.97;43.63
36502;BME280;25393;46.108;3.390;2022-07-06T09:13:51;98739.72;;;28.19;43.64
36502;BME280;25393;46.108;3.390;2022-07-06T09:16:26;98731.34;;;28.36;43.64
36502;BME280;25393;46.108;3.390;2022-07-06T09:19:05;98746.84;;;28.30;43.94
36502;BME280;25393;46.108;3.390;2022-07-06T09:21:33;98755.94;;;28.56;43.71
36502;BME280;25393;46.108;3.390;2022-07-06T09:24:08;98746.75;;;28.82;42.49
36502;BME280;25393;46.108;3.390;2022-07-06T09:26:36;98753.63;;;28.95;42.04
36502;BME280;25393;46.108;3.390;2022-07-06T09:29:04;98742.44;;;28.91;41.01
36502;BME280;25393;46.108;3.390;2022-07-06T09:31:31;98748.47;;;29.08;41.98
36502;BME280;25393;46.108;3.390;2022-07-06T09:34:06;98748.50;;;29.39;42.85
36502;BME280;25393;46.108;3.390;2022-07-06T09:36:44;98747.38;;;29.70;41.14
36502;BME280;25393;46.108;3.390;2022-07-06T09:41:46;98739.75;;;29.42;41.42
36502;BME280;25393;46.108;3.390;2022-07-06T09:44:18;98737.00;;;29.67;41.24
36502;BME280;25393;46.108;3.390;2022-07-06T09:46:46;98723.53;;;30.11;40.97
36502;BME280;25393;46.108;3.390;2022-07-06T09:49:18;98736.28;;;30.46;40.05
36502;BME280;25393;46.108;3.390;2022-07-06T09:51:48;98735.19;;;30.42;40.50
36502;BME280;25393;46.108;3.390;2022-07-06T09:54:16;98727.31;;;30.84;40.48
36502;BME280;25393;46.108;3.390;2022-07-06T09:56:45;98718.31;;;31.17;37.51
36502;BME280;25393;46.108;3.390;2022-07-06T09:59:24;98737.84;;;31.45;38.57
36502;BME280;25393;46.108;3.390;2022-07-06T10:01:57;98729.94;;;31.72;37.80
36502;BME280;25393;46.108;3.390;2022-07-06T10:04:26;98727.19;;;31.72;37.23
36502;BME280;25393;46.108;3.390;2022-07-06T10:06:54;98735.91;;;31.74;36.32
36502;BME280;25393;46.108;3.390;2022-07-06T10:09:24;98725.94;;;31.26;35.29
36502;BME280;25393;46.108;3.390;2022-07-06T10:11:53;98730.38;;;31.50;37.45
36502;BME280;25393;46.108;3.390;2022-07-06T10:14:25;98727.75;;;31.98;35.92
36502;BME280;25393;46.108;3.390;2022-07-06T10:16:59;98729.97;;;32.19;35.34
36502;BME280;25393;46.108;3.390;2022-07-06T10:19:27;98734.44;;;32.15;35.24
36502;BME280;25393;46.108;3.390;2022-07-06T10:21:54;98715.66;;;32.46;35.04
36502;BME280;25393;46.108;3.390;2022-07-06T10:24:22;98728.25;;;32.71;34.41
36502;BME280;25393;46.108;3.390;2022-07-06T10:26:50;98719.19;;;32.89;33.81
36502;BME280;25393;46.108;3.390;2022-07-06T10:29:18;98717.31;;;32.66;34.16
36502;BME280;25393;46.108;3.390;2022-07-06T10:31:47;98734.41;;;33.19;35.12
36502;BME280;25393;46.108;3.390;2022-07-06T10:34:15;98737.13;;;33.70;34.50
36502;BME280;25393;46.108;3.390;2022-07-06T10:36:48;98729.94;;;34.01;33.02
36502;BME280;25393;46.108;3.390;2022-07-06T10:39:15;98725.13;;;33.47;31.37
36502;BME280;25393;46.108;3.390;2022-07-06T10:42:00;98734.88;;;33.40;32.95
36502;BME280;25393;46.108;3.390;2022-07-06T10:44:27;98725.78;;;32.70;33.47
36502;BME280;25393;46.108;3.390;2022-07-06T10:46:56;98723.13;;;33.21;32.99
36502;BME280;25393;46.108;3.390;2022-07-06T10:49:24;98733.97;;;32.03;32.40
36502;BME280;25393;46.108;3.390;2022-07-06T10:52:11;98752.06;;;31.81;34.09
36502;BME280;25393;46.108;3.390;2022-07-06T10:54:43;98751.50;;;32.31;33.05
36502;BME280;25393;46.108;3.390;2022-07-06T10:57:10;98744.72;;;31.71;32.02
36502;BME280;25393;46.108;3.390;2022-07-06T11:00:00;98741.41;;;32.50;33.29
36502;BME280;25393;46.108;3.390;2022-07-06T11:02:37;98737.22;;;32.95;33.08
36502;BME280;25393;46.108;3.390;2022-07-06T11:05:10;98735.00;;;33.48;32.03
36502;BME280;25393;46.108;3.390;2022-07-06T11:07:49;98730.97;;;33.27;31.67
36502;BME280;25393;46.108;3.390;2022-07-06T11:10:17;98714.41;;;33.32;32.15
36502;BME280;25393;46.108;3.390;2022-07-06T11:12:46;98704.97;;;33.38;29.97
36502;BME280;25393;46.108;3.390;2022-07-06T11:15:48;98710.50;;;33.20;33.65
36502;BME280;25393;46.108;3.390;2022-07-06T11:18:19;98702.06;;;33.48;32.17
36502;BME280;25393;46.108;3.390;2022-07-06T11:21:18;98712.41;;;33.70;31.96
36502;BME280;25393;46.108;3.390;2022-07-06T11:23:46;98691.78;;;33.54;31.17
36502;BME280;25393;46.108;3.390;2022-07-06T11:26:15;98691.13;;;33.89;32.10
36502;BME280;25393;46.108;3.390;2022-07-06T11:28:45;98707.69;;;34.30;31.87
36502;BME280;25393;46.108;3.390;2022-07-06T11:31:13;98701.00;;;34.45;29.93
36502;BME280;25393;46.108;3.390;2022-07-06T11:33:41;98686.25;;;34.41;30.56
36502;BME280;25393;46.108;3.390;2022-07-06T11:36:15;98702.44;;;34.42;30.92
36502;BME280;25393;46.108;3.390;2022-07-06T11:38:43;98689.75;;;34.82;30.23
36502;BME280;25393;46.108;3.390;2022-07-06T11:41:10;98695.59;;;35.03;30.60
36502;BME280;25393;46.108;3.390;2022-07-06T11:43:42;98686.25;;;34.90;29.85
36502;BME280;25393;46.108;3.390;2022-07-06T11:46:37;98695.44;;;34.86;29.23
36502;BME280;25393;46.108;3.390;2022-07-06T11:49:06;98689.00;;;34.90;29.96
36502;BME280;25393;46.108;3.390;2022-07-06T11:51:36;98691.84;;;34.63;30.12
36502;BME280;25393;46.108;3.390;2022-07-06T11:54:12;98683.13;;;34.34;30.46
36502;BME280;25393;46.108;3.390;2022-07-06T11:59:14;98691.66;;;33.45;31.70
36502;BME280;25393;46.108;3.390;2022-07-06T12:01:41;98668.03;;;34.04;30.36
36502;BME280;25393;46.108;3.390;2022-07-06T12:04:11;98685.94;;;34.42;30.90
36502;BME280;25393;46.108;3.390;2022-07-06T12:06:38;98673.34;;;34.77;31.51
36502;BME280;25393;46.108;3.390;2022-07-06T12:09:09;98661.91;;;35.06;29.90
36502;BME280;25393;46.108;3.390;2022-07-06T12:11:36;98674.25;;;35.31;30.36
36502;BME280;25393;46.108;3.390;2022-07-06T12:14:16;98667.06;;;35.74;30.31
36502;BME280;25393;46.108;3.390;2022-07-06T12:16:43;98676.41;;;35.95;29.68
36502;BME280;25393;46.108;3.390;2022-07-06T12:19:11;98669.66;;;36.10;29.94
36502;BME280;25393;46.108;3.390;2022-07-06T12:21:46;98659.16;;;36.21;29.36
36502;BME280;25393;46.108;3.390;2022-07-06T12:24:27;98661.41;;;36.19;27.89
36502;BME280;25393;46.108;3.390;2022-07-06T12:26:54;98666.97;;;35.88;28.82
36502;BME280;25393;46.108;3.390;2022-07-06T12:29:21;98658.34;;;35.89;29.26
36502;BME280;25393;46.108;3.390;2022-07-06T12:31:50;98663.72;;;35.94;29.46
36502;BME280;25393;46.108;3.390;2022-07-06T12:34:18;98661.75;;;36.26;28.75
36502;BME280;25393;46.108;3.390;2022-07-06T12:36:50;98652.34;;;36.44;29.19
36502;BME280;25393;46.108;3.390;2022-07-06T12:39:20;98658.69;;;36.53;27.80
36502;BME280;25393;46.108;3.390;2022-07-06T12:41:50;98657.53;;;36.37;28.18
36502;BME280;25393;46.108;3.390;2022-07-06T12:44:22;98672.81;;;36.34;27.21
36502;BME280;25393;46.108;3.390;2022-07-06T12:47:09;98651.72;;;36.47;28.05
36502;BME280;25393;46.108;3.390;2022-07-06T12:49:37;98651.28;;;36.62;28.22
36502;BME280;25393;46.108;3.390;2022-07-06T12:52:14;98661.16;;;36.89;28.75
36502;BME280;25393;46.108;3.390;2022-07-06T12:57:14;98666.03;;;37.18;27.29
36502;BME280;25393;46.108;3.390;2022-07-06T12:59:55;98654.03;;;37.14;26.99
36502;BME280;25393;46.108;3.390;2022-07-06T13:05:12;98657.59;;;36.71;27.21
36502;BME280;25393;46.108;3.390;2022-07-06T13:07:44;98663.94;;;36.80;27.42
36502;BME280;25393;46.108;3.390;2022-07-06T13:10:13;98653.06;;;37.10;27.61
36502;BME280;25393;46.108;3.390;2022-07-06T13:12:40;98650.56;;;37.42;27.88
36502;BME280;25393;46.108;3.390;2022-07-06T13:15:08;98640.94;;;37.57;27.66
36502;BME280;25393;46.108;3.390;2022-07-06T13:17:36;98648.34;;;37.74;26.73
36502;BME280;25393;46.108;3.390;2022-07-06T13:20:07;98654.19;;;37.72;26.05